Time;durP1;ratioP1;P1;durP2;ratioP2;P2;SDS_P1;SDS_P2;PMS_P1;PMS_P2;Temp;Humidity;BMP_temperature;BMP_pressure;BME280_temperature;BME280_humidity;BME280_pressure;Samples;Min_cycle;Max_cycle;Signal;HPM_P1;HPM_P2
2023/12/02 00:01:40;;;;;;;38.50;18.30;;;;;;;-1.44;62.91;98474.97;5035661;28;20033;-64
2023/12/02 00:04:06;;;;;;;35.85;17.60;;;;;;;-1.40;63.06;98494.00;5035894;28;20061;-64
2023/12/02 00:06:31;;;;;;;35.88;19.08;;;;;;;-1.70;63.46;98455.31;5037168;28;20055;-62
2023/12/02 00:08:57;;;;;;;37.00;18.85;;;;;;;-1.45;63.64;98497.72;5053696;28;20025;-61
2023/12/02 00:11:23;;;;;;;43.83;19.77;;;;;;;-1.43;63.85;98499.41;5049025;28;20037;-61
2023/12/02 00:13:48;;;;;;;38.40;18.58;;;;;;;-1.44;63.54;98498.59;5053021;28;20024;-62
2023/12/02 00:16:14;;;;;;;43.28;20.05;;;;;;;-1.41;63.77;98510.69;5052191;28;20035;-61
2023/12/02 00:18:39;;;;;;;36.25;19.10;;;;;;;-1.43;63.87;98510.78;5036190;28;20053;-62
2023/12/02 00:21:05;;;;;;;39.33;19.42;;;;;;;-1.40;63.42;98509.75;5033725;28;20025;-63
2023/12/02 00:23:31;;;;;;;42.00;20.08;;;;;;;-1.43;63.31;98505.53;5033649;28;20025;-63
2023/12/02 00:25:58;;;;;;;42.70;20.52;;;;;;;-1.37;63.78;98509.59;5045078;28;20375;-63
2023/12/02 00:28:24;;;;;;;38.53;19.40;;;;;;;-1.38;63.19;98516.63;5055716;28;20056;-62
2023/12/02 00:30:50;;;;;;;41.97;20.15;;;;;;;-1.37;62.77;98517.47;5055301;28;20037;-63
2023/12/02 00:33:16;;;;;;;43.53;19.73;;;;;;;-1.42;62.96;98516.88;5054951;28;20117;-62
2023/12/02 00:35:41;;;;;;;44.53;21.02;;;;;;;-1.76;63.46;98464.34;5055021;28;20032;-62
2023/12/02 00:38:07;;;;;;;39.97;19.55;;;;;;;-1.44;63.57;98514.34;5055488;28;20086;-63
2023/12/02 00:40:32;;;;;;;46.08;19.95;;;;;;;-1.44;62.94;98530.09;5045743;28;20033;-63
2023/12/02 00:42:58;;;;;;;38.03;18.63;;;;;;;-1.50;63.04;98530.38;5035057;28;20075;-58
2023/12/02 00:45:24;;;;;;;39.80;20.02;;;;;;;-1.67;63.80;98508.50;5035149;28;20033;-64
2023/12/02 00:47:49;;;;;;;38.40;19.05;;;;;;;-1.48;63.68;98528.53;5035385;28;20040;-63
2023/12/02 00:50:16;;;;;;;42.35;20.45;;;;;;;-1.45;63.27;98531.00;5034042;28;20030;-62
2023/12/02 00:52:42;;;;;;;40.20;20.23;;;;;;;-1.50;63.02;98517.25;5035757;28;20029;-63
2023/12/02 00:55:08;;;;;;;40.72;19.60;;;;;;;-1.72;62.77;98479.00;5054712;28;20029;-63
2023/12/02 00:57:34;;;;;;;36.83;19.15;;;;;;;-1.50;63.18;98514.63;5042809;28;20037;-63
2023/12/02 01:00:00;;;;;;;47.20;21.23;;;;;;;-1.49;63.32;98526.84;5034635;28;20076;-61
2023/12/02 01:02:25;;;;;;;37.13;19.50;;;;;;;-1.55;63.34;98514.91;5034471;28;20025;-63
2023/12/02 01:04:51;;;;;;;44.08;21.70;;;;;;;-1.60;63.91;98517.75;5046751;28;20033;-63
2023/12/02 01:07:16;;;;;;;45.15;22.35;;;;;;;-1.50;63.83;98527.75;5054333;28;20105;-61
2023/12/02 01:09:42;;;;;;;45.03;21.58;;;;;;;-1.52;63.45;98537.50;5038328;28;20440;-63
2023/12/02 01:12:08;;;;;;;46.70;21.02;;;;;;;-1.50;63.34;98517.25;5034507;28;20029;-64
2023/12/02 01:14:33;;;;;;;44.15;21.85;;;;;;;-1.52;63.31;98527.88;5034306;28;20168;-62
2023/12/02 01:16:59;;;;;;;44.78;20.50;;;;;;;-1.51;63.70;98515.56;5035046;28;20037;-63
2023/12/02 01:19:25;;;;;;;41.90;20.98;;;;;;;-1.50;64.08;98526.00;5034703;28;20337;-62
2023/12/02 01:21:51;;;;;;;42.28;21.67;;;;;;;-1.45;63.67;98520.50;5033976;28;20045;-61
2023/12/02 01:24:16;;;;;;;42.25;20.92;;;;;;;-1.42;63.53;98522.13;5048626;28;20025;-64
2023/12/02 01:26:43;;;;;;;43.08;21.75;;;;;;;-1.43;63.24;98534.41;5054137;28;20048;-63
2023/12/02 01:29:08;;;;;;;42.13;21.17;;;;;;;-1.40;63.56;98538.63;5037509;28;20033;-63
2023/12/02 01:31:34;;;;;;;42.45;21.33;;;;;;;-1.39;63.18;98533.31;5033917;28;20044;-63
2023/12/02 01:34:00;;;;;;;46.30;21.52;;;;;;;-1.39;63.38;98524.59;5034358;28;20026;-63
2023/12/02 01:36:25;;;;;;;40.92;21.70;;;;;;;-1.38;63.38;98529.75;5033717;28;20454;-63
2023/12/02 01:38:51;;;;;;;48.92;21.95;;;;;;;-1.64;63.15;98491.75;5046877;28;20489;-64
2023/12/02 01:41:16;;;;;;;46.63;21.52;;;;;;;-1.65;63.56;98501.41;5053684;28;20064;-64
2023/12/02 01:43:42;;;;;;;44.75;21.95;;;;;;;-1.42;63.37;98530.84;5053661;28;20032;-61
2023/12/02 01:46:08;;;;;;;42.63;21.95;;;;;;;-1.45;63.39;98536.25;5045607;28;20025;-63
2023/12/02 01:48:35;;;;;;;46.42;22.92;;;;;;;-1.46;63.32;98531.91;5033740;28;20038;-63
2023/12/02 01:51:01;;;;;;;46.70;22.23;;;;;;;-1.74;63.45;98501.88;5034854;28;20017;-63
2023/12/02 01:53:27;;;;;;;47.65;22.80;;;;;;;-1.61;63.43;98538.81;5052443;28;20041;-62
2023/12/02 01:55:53;;;;;;;45.05;22.52;;;;;;;-1.61;63.67;98544.94;5053397;28;20059;-62
2023/12/02 01:58:19;;;;;;;44.60;22.42;;;;;;;-1.62;64.05;98543.22;5048839;28;20025;-63
2023/12/02 02:00:45;;;;;;;42.53;21.63;;;;;;;-1.63;63.32;98548.53;5033717;28;20037;-64
2023/12/02 02:03:11;;;;;;;48.55;22.52;;;;;;;-1.67;63.52;98550.50;5033361;28;20423;-64
2023/12/02 02:05:36;;;;;;;47.58;23.55;;;;;;;-1.70;63.25;98549.78;5034182;28;20113;-63
2023/12/02 02:08:02;;;;;;;44.25;21.05;;;;;;;-1.68;63.34;98553.19;5041606;28;20406;-64
2023/12/02 02:10:28;;;;;;;48.50;23.15;;;;;;;-2.03;63.32;98506.81;5043823;28;20497;-63
2023/12/02 02:12:54;;;;;;;47.47;22.63;;;;;;;-1.74;64.00;98554.34;5053229;28;20440;-64
2023/12/02 02:15:20;;;;;;;44.38;22.70;;;;;;;-1.75;63.61;98560.50;5052639;28;20060;-63
2023/12/02 02:17:46;;;;;;;45.40;22.75;;;;;;;-1.70;64.03;98560.28;5051246;28;20032;-63
2023/12/02 02:20:31;;;;;;;47.33;22.98;;;;;;;-1.67;63.91;98544.38;5042531;28;20037;-64
2023/12/02 02:22:57;;;;;;;49.28;22.02;;;;;;;-1.70;63.77;98547.16;5041465;28;20037;-62
2023/12/02 02:25:22;;;;;;;47.33;22.77;;;;;;;-1.71;63.99;98543.69;5043234;28;20798;-62
2023/12/02 02:27:48;;;;;;;47.03;22.92;;;;;;;-1.73;63.83;98542.91;5032806;28;20050;-63
2023/12/02 02:30:14;;;;;;;50.08;22.27;;;;;;;-1.76;63.60;98548.31;5032791;28;20033;-63
2023/12/02 02:32:40;;;;;;;49.00;23.95;;;;;;;-1.83;63.96;98539.06;5033510;28;20038;-62
2023/12/02 02:35:06;;;;;;;48.25;23.13;;;;;;;-2.08;63.71;98506.22;5033366;28;20036;-62
2023/12/02 02:37:31;;;;;;;49.35;23.33;;;;;;;-1.80;63.70;98554.66;5035584;28;20037;-64
2023/12/02 02:39:57;;;;;;;49.03;24.08;;;;;;;-1.79;64.27;98548.47;5032728;28;20102;-62
2023/12/02 02:42:23;;;;;;;49.72;24.10;;;;;;;-1.79;64.02;98551.09;5033632;28;20025;-64
2023/12/02 02:44:48;;;;;;;45.13;21.75;;;;;;;-1.78;63.47;98569.41;5036527;28;20468;-62
2023/12/02 02:47:14;;;;;;;43.78;22.55;;;;;;;-1.77;63.76;98571.09;5052737;28;20056;-64
2023/12/02 02:49:39;;;;;;;49.30;23.20;;;;;;;-1.75;64.23;98568.38;5051454;28;20073;-63
2023/12/02 02:52:05;;;;;;;51.88;23.95;;;;;;;-1.74;63.79;98573.56;5039521;28;20059;-56
2023/12/02 02:54:31;;;;;;;49.90;23.98;;;;;;;-1.71;63.37;98580.44;5053288;28;20035;-64
2023/12/02 02:56:56;;;;;;;50.05;23.10;;;;;;;-1.72;63.69;98591.84;5052217;28;20359;-63
2023/12/02 02:59:22;;;;;;;47.53;23.48;;;;;;;-1.72;63.53;98591.84;5052417;28;20036;-62
2023/12/02 03:01:48;;;;;;;46.22;22.83;;;;;;;-1.75;63.32;98597.25;5052514;28;20424;-64
2023/12/02 03:04:14;;;;;;;48.97;23.65;;;;;;;-1.87;63.36;98585.59;5052790;28;20037;-63
2023/12/02 03:06:40;;;;;;;47.05;23.58;;;;;;;-1.86;63.80;98602.19;5047171;28;20422;-59
2023/12/02 03:09:06;;;;;;;48.22;24.48;;;;;;;-2.13;63.80;98545.75;5044192;28;20033;-63
2023/12/02 03:11:32;;;;;;;50.70;23.73;;;;;;;-1.92;63.32;98592.84;5033948;28;20032;-64
2023/12/02 03:13:58;;;;;;;50.47;23.40;;;;;;;-1.96;64.08;98600.00;5049898;28;20069;-64
2023/12/02 03:16:23;;;;;;;44.97;23.48;;;;;;;-1.92;63.98;98595.47;5051767;28;20405;-64
2023/12/02 03:18:49;;;;;;;49.45;23.00;;;;;;;-1.91;64.00;98600.66;5052145;28;20071;-64
2023/12/02 03:21:14;;;;;;;48.28;24.13;;;;;;;-1.86;63.74;98604.81;5037374;28;20038;-63
2023/12/02 03:23:40;;;;;;;45.40;23.55;;;;;;;-1.89;63.24;98598.81;5032400;28;20029;-64
2023/12/02 03:26:06;;;;;;;45.75;23.52;;;;;;;-2.07;63.68;98573.47;5031878;28;20427;-64
2023/12/02 03:28:32;;;;;;;48.03;23.40;;;;;;;-2.26;63.90;98553.38;5032054;28;20065;-64
2023/12/02 03:30:59;;;;;;;46.70;22.65;;;;;;;-1.88;64.20;98616.25;5031835;28;20333;-64
2023/12/02 03:33:25;;;;;;;45.05;22.92;;;;;;;-1.86;63.76;98612.69;5032109;28;20025;-63
2023/12/02 03:35:50;;;;;;;46.97;23.65;;;;;;;-1.85;63.72;98617.00;5042997;28;20036;-63
2023/12/02 03:38:16;;;;;;;46.90;23.48;;;;;;;-1.83;64.05;98617.78;5036543;28;20072;-63
2023/12/02 03:40:42;;;;;;;53.80;23.98;;;;;;;-1.84;63.88;98624.78;5052170;28;20115;-63
2023/12/02 03:43:09;;;;;;;49.42;23.33;;;;;;;-1.84;63.76;98637.91;5051806;28;20034;-62
2023/12/02 03:45:34;;;;;;;50.72;24.10;;;;;;;-1.87;63.71;98635.44;5052119;28;20035;-64
2023/12/02 03:48:00;;;;;;;44.22;22.50;;;;;;;-1.89;63.59;98625.03;5052012;28;20021;-64
2023/12/02 03:50:25;;;;;;;45.47;23.08;;;;;;;-1.96;63.70;98618.38;5039064;28;20481;-64
2023/12/02 03:52:51;;;;;;;46.35;23.45;;;;;;;-1.92;63.87;98624.31;5044459;28;20039;-64
2023/12/02 03:55:18;;;;;;;44.05;22.45;;;;;;;-1.94;63.56;98627.00;5046794;28;20030;-63
2023/12/02 03:57:45;;;;;;;47.78;24.08;;;;;;;-2.03;64.03;98616.97;5031492;28;20034;-63
2023/12/02 04:00:11;;;;;;;50.83;24.27;;;;;;;-2.03;63.49;98624.84;5031615;28;20116;-63
2023/12/02 04:02:40;;;;;;;50.38;24.15;;;;;;;-2.04;63.61;98636.25;5031617;28;20116;-63
2023/12/02 04:05:10;;;;;;;49.63;24.23;;;;;;;-2.07;63.67;98629.38;5042678;28;20436;-64
2023/12/02 04:07:37;;;;;;;48.95;23.70;;;;;;;-2.14;63.51;98640.25;5051548;28;20044;-63
2023/12/02 04:10:06;;;;;;;51.92;23.70;;;;;;;-2.18;63.93;98629.91;5051004;28;20112;-63
2023/12/02 04:12:33;;;;;;;43.17;23.27;;;;;;;-2.14;63.91;98637.63;5051832;28;20033;-64
2023/12/02 04:14:59;;;;;;;46.90;22.60;;;;;;;-2.12;63.62;98648.91;5049309;28;20025;-64
2023/12/02 04:17:24;;;;;;;47.67;24.15;;;;;;;-2.12;63.70;98651.53;5031724;28;20034;-63
2023/12/02 04:19:50;;;;;;;46.58;23.40;;;;;;;-2.22;64.51;98638.00;5042525;28;20028;-63
2023/12/02 04:22:16;;;;;;;44.10;22.17;;;;;;;-2.13;64.15;98653.28;5051402;28;20039;-63
2023/12/02 04:24:42;;;;;;;47.72;24.23;;;;;;;-2.11;64.56;98661.94;5051466;28;20052;-62
2023/12/02 04:27:08;;;;;;;43.20;23.27;;;;;;;-2.10;63.97;98658.38;5051525;28;20464;-64
2023/12/02 04:29:40;;;;;;;46.83;23.33;;;;;;;-2.05;63.75;98658.16;5051976;28;20049;-63
2023/12/02 04:32:06;;;;;;;50.65;24.60;;;;;;;-2.33;64.48;98636.72;5051329;28;20091;-63
2023/12/02 04:34:33;;;;;;;47.55;23.95;;;;;;;-2.13;64.37;98679.50;5040161;28;20056;-63
2023/12/02 04:36:59;;;;;;;47.17;23.65;;;;;;;-2.12;64.38;98667.25;5031846;28;20041;-63
2023/12/02 04:39:25;;;;;;;44.22;23.13;;;;;;;-2.11;64.75;98671.59;5035149;28;20038;-64
2023/12/02 04:41:51;;;;;;;51.58;24.80;;;;;;;-2.13;64.49;98673.44;5034841;28;20026;-63
2023/12/02 04:44:17;;;;;;;47.92;23.55;;;;;;;-2.13;64.65;98674.25;5034845;28;20095;-63
2023/12/02 04:46:43;;;;;;;50.92;24.60;;;;;;;-2.12;64.44;98688.25;5034742;28;20037;-63
2023/12/02 04:49:09;;;;;;;55.08;24.77;;;;;;;-2.14;64.28;98688.31;5044429;28;20418;-63
2023/12/02 04:51:35;;;;;;;46.13;23.73;;;;;;;-2.14;64.23;98695.34;5041006;28;20444;-64
2023/12/02 04:54:00;;;;;;;50.00;23.42;;;;;;;-2.17;64.46;98694.56;5038822;28;20021;-65
2023/12/02 04:56:26;;;;;;;47.83;23.70;;;;;;;-2.17;64.13;98689.31;5054903;28;20082;-63
2023/12/02 04:58:52;;;;;;;43.45;22.48;;;;;;;-2.18;64.10;98695.44;5055223;28;20021;-62
2023/12/02 05:01:17;;;;;;;51.88;23.90;;;;;;;-2.23;64.72;98688.75;5054892;28;20086;-64
2023/12/02 05:03:43;;;;;;;50.72;24.45;;;;;;;-2.23;64.66;98694.00;5045850;28;20018;-59
2023/12/02 05:06:14;;;;;;;49.35;23.33;;;;;;;-2.21;64.74;98690.34;5045902;28;20033;-64
2023/12/02 05:08:39;;;;;;;50.83;23.35;;;;;;;-2.21;64.94;98702.63;5055467;28;20021;-63
2023/12/02 05:11:05;;;;;;;47.38;24.55;;;;;;;-2.24;64.88;98698.38;5054537;28;20450;-63
2023/12/02 05:13:31;;;;;;;45.60;23.02;;;;;;;-2.30;64.97;98693.41;5052572;28;20117;-63
2023/12/02 05:15:56;;;;;;;43.75;23.17;;;;;;;-2.23;64.50;98705.31;5035823;28;20432;-63
2023/12/02 05:18:22;;;;;;;49.75;23.85;;;;;;;-2.23;64.94;98717.59;5041756;28;20041;-64
2023/12/02 05:20:48;;;;;;;47.20;23.85;;;;;;;-2.25;64.88;98717.66;5054279;28;20411;-63
2023/12/02 05:23:13;;;;;;;52.60;24.60;;;;;;;-2.25;65.06;98717.66;5054402;28;20411;-57
2023/12/02 05:25:39;;;;;;;49.22;23.73;;;;;;;-2.31;64.53;98720.56;5041674;28;20033;-64
2023/12/02 05:28:05;;;;;;;48.10;23.73;;;;;;;-2.28;65.27;98741.38;5033959;28;20140;-64
2023/12/02 05:30:33;;;;;;;48.35;24.20;;;;;;;-2.25;64.67;98735.16;5034198;28;20483;-64
2023/12/02 05:32:59;;;;;;;50.28;23.85;;;;;;;-2.23;64.67;98746.44;5039835;28;20044;-64
2023/12/02 05:35:24;;;;;;;50.28;22.83;;;;;;;-2.21;64.90;98748.03;5052224;28;20440;-64
2023/12/02 05:37:50;;;;;;;49.38;24.27;;;;;;;-2.25;64.83;98746.50;5035761;28;20026;-64
2023/12/02 05:40:17;;;;;;;49.20;22.73;;;;;;;-2.24;65.24;98750.81;5033562;28;20029;-64
2023/12/02 05:42:43;;;;;;;47.70;22.73;;;;;;;-2.23;64.59;98751.69;5034514;28;20029;-63
2023/12/02 05:45:09;;;;;;;47.95;23.33;;;;;;;-2.25;65.28;98749.09;5033817;28;20029;-61
2023/12/02 05:47:35;;;;;;;46.10;23.38;;;;;;;-2.20;65.01;98751.53;5037236;28;20897;-61
2023/12/02 05:50:01;;;;;;;52.03;24.30;;;;;;;-2.23;64.65;98752.50;5034145;28;20026;-63
2023/12/02 05:52:30;;;;;;;48.63;23.73;;;;;;;-2.17;64.50;98761.88;5033596;28;20061;-64
2023/12/02 05:54:56;;;;;;;78.55;24.67;;;;;;;-2.16;64.71;98763.56;5033647;28;20061;-63
2023/12/02 05:57:22;;;;;;;46.00;22.73;;;;;;;-2.12;65.11;98759.06;5033908;28;20108;-63
2023/12/02 05:59:50;;;;;;;50.85;23.88;;;;;;;-2.10;64.58;98770.31;5033769;28;20457;-62
2023/12/02 06:02:16;;;;;;;53.83;23.50;;;;;;;-2.10;64.70;98767.69;5047850;28;20040;-58
2023/12/02 06:04:42;;;;;;;51.92;22.40;;;;;;;-2.08;64.92;98769.31;5053732;28;20242;-62
2023/12/02 06:07:08;;;;;;;49.75;23.27;;;;;;;-2.08;64.64;98779.81;5050334;28;20035;-64
2023/12/02 06:09:34;;;;;;;48.45;23.48;;;;;;;-2.07;64.80;98776.25;5033140;28;20079;-64
2023/12/02 06:12:00;;;;;;;50.42;23.48;;;;;;;-2.32;64.52;98738.03;5033227;28;20108;-64
2023/12/02 06:14:26;;;;;;;43.30;22.40;;;;;;;-2.07;64.74;98780.66;5033610;28;20175;-62
2023/12/02 06:16:51;;;;;;;50.72;23.35;;;;;;;-1.98;64.19;98788.09;5046656;28;20504;-64
2023/12/02 06:19:20;;;;;;;46.15;22.63;;;;;;;-2.04;64.44;98791.88;5053413;28;20055;-59
2023/12/02 06:21:46;;;;;;;47.80;22.73;;;;;;;-1.96;63.80;98799.38;5052432;28;20029;-64
2023/12/02 06:24:12;;;;;;;47.95;22.77;;;;;;;-1.97;64.24;98807.34;5053820;28;20467;-64
2023/12/02 06:26:38;;;;;;;48.72;23.08;;;;;;;-1.93;64.28;98817.63;5052952;28;20186;-64
2023/12/02 06:29:04;;;;;;;47.00;24.00;;;;;;;-1.93;64.21;98822.00;5051198;28;20033;-66
2023/12/02 06:31:30;;;;;;;49.45;23.85;;;;;;;-1.98;64.42;98814.34;5049305;28;20452;-65
2023/12/02 06:33:56;;;;;;;50.92;23.55;;;;;;;-1.84;64.39;98831.25;5053297;28;20040;-66
2023/12/02 06:36:22;;;;;;;49.75;23.45;;;;;;;-1.85;64.24;98825.13;5052840;28;20055;-65
2023/12/02 06:38:47;;;;;;;46.13;21.73;;;;;;;-1.84;63.97;98837.31;5052752;28;20164;-58
2023/12/02 06:41:13;;;;;;;48.97;20.85;;;;;;;-1.80;63.69;98838.03;5052604;28;20029;-65
2023/12/02 06:43:39;;;;;;;52.60;24.33;;;;;;;-1.93;63.93;98836.00;5052446;28;20024;-64
2023/12/02 06:46:06;;;;;;;54.60;23.63;;;;;;;-1.99;64.15;98822.28;5036297;28;20458;-64
2023/12/02 06:48:31;;;;;;;54.00;24.20;;;;;;;-1.96;64.63;98816.91;5032696;28;20030;-64
2023/12/02 06:50:57;;;;;;;48.97;24.13;;;;;;;-1.94;65.00;98818.53;5032168;28;20391;-64
2023/12/02 06:53:23;;;;;;;52.92;25.90;;;;;;;-1.86;64.60;98822.59;5047471;28;20029;-63
2023/12/02 06:55:48;;;;;;;52.90;23.45;;;;;;;-1.78;64.22;98830.94;5038820;28;20278;-61
2023/12/02 06:58:14;;;;;;;54.88;24.80;;;;;;;-1.71;64.40;98831.53;5032499;28;20037;-65
2023/12/02 07:00:39;;;;;;;54.80;24.10;;;;;;;-1.67;63.90;98831.31;5046442;28;20107;-63
2023/12/02 07:03:08;;;;;;;52.20;25.88;;;;;;;-1.63;64.05;98840.75;5052657;28;20033;-64
2023/12/02 07:05:34;;;;;;;54.08;27.30;;;;;;;-1.64;63.44;98839.06;5040226;28;20060;-64
2023/12/02 07:08:00;;;;;;;49.00;24.33;;;;;;;-1.62;63.43;98839.81;5047601;28;20047;-65
2023/12/02 07:10:26;;;;;;;57.78;24.55;;;;;;;-1.60;64.06;98851.09;5042292;28;20048;-64
2023/12/02 07:12:52;;;;;;;53.13;24.80;;;;;;;-1.56;63.60;98843.09;5032595;28;20116;-66
2023/12/02 07:15:17;;;;;;;54.50;24.65;;;;;;;-1.52;63.87;98847.25;5032329;28;20520;-54
2023/12/02 07:17:43;;;;;;;52.88;24.88;;;;;;;-1.50;63.28;98851.53;5045623;28;20047;-59
2023/12/02 07:20:09;;;;;;;51.42;24.58;;;;;;;-1.45;63.63;98859.16;5051913;28;20048;-56
2023/12/02 07:22:36;;;;;;;53.95;23.88;;;;;;;-1.43;63.43;98859.97;5045847;28;20030;-59
2023/12/02 07:25:02;;;;;;;51.97;23.83;;;;;;;-1.43;63.76;98875.72;5049088;28;20037;-56
2023/12/02 07:27:28;;;;;;;48.85;24.38;;;;;;;-1.41;63.52;98873.00;5048899;28;20109;-58
2023/12/02 07:29:53;;;;;;;53.55;23.80;;;;;;;-1.36;63.73;98884.16;5039873;28;20041;-61
2023/12/02 07:32:19;;;;;;;50.38;24.95;;;;;;;-1.40;63.25;98861.59;5042002;28;20107;-59
2023/12/02 07:34:45;;;;;;;53.60;24.70;;;;;;;-1.27;62.96;98877.63;5031518;28;20030;-59
2023/12/02 07:37:10;;;;;;;49.70;23.58;;;;;;;-1.25;62.86;98881.03;5031805;28;20025;-58
2023/12/02 07:39:36;;;;;;;54.85;24.98;;;;;;;-1.19;62.83;98886.00;5035581;28;20033;-58
2023/12/02 07:42:02;;;;;;;50.72;23.80;;;;;;;-1.19;62.73;98889.47;5031664;28;20030;-56
2023/12/02 07:44:27;;;;;;;57.42;25.15;;;;;;;-1.15;62.67;98890.19;5042568;28;20033;-58
2023/12/02 07:46:53;;;;;;;55.58;25.30;;;;;;;-1.10;62.86;98905.72;5051564;28;20051;-58
2023/12/02 07:49:18;;;;;;;55.45;24.77;;;;;;;-1.11;62.54;98904.88;5051729;28;20430;-59
2023/12/02 07:51:44;;;;;;;49.70;25.02;;;;;;;-1.09;62.79;98913.53;5051541;28;20025;-57
2023/12/02 07:54:10;;;;;;;51.53;24.17;;;;;;;-0.99;62.83;98920.97;5051997;28;20029;-56
2023/12/02 07:56:36;;;;;;;49.33;25.48;;;;;;;-0.93;62.75;98923.31;5050999;28;20025;-59
2023/12/02 07:59:02;;;;;;;53.53;24.48;;;;;;;-0.80;62.80;98928.84;5040745;28;20095;-60
2023/12/02 08:01:28;;;;;;;51.47;23.73;;;;;;;-0.88;62.20;98887.16;5032697;28;20037;-56
2023/12/02 08:03:53;;;;;;;49.33;23.33;;;;;;;-0.57;61.92;98938.22;5047835;28;20029;-57
2023/12/02 08:06:19;;;;;;;53.72;23.80;;;;;;;-0.48;61.57;98940.41;5051862;28;20374;-61
2023/12/02 08:08:45;;;;;;;48.25;22.58;;;;;;;-0.38;61.39;98950.47;5051833;28;20440;-59
2023/12/02 08:11:11;;;;;;;47.45;22.10;;;;;;;-0.31;60.83;98951.84;5052163;28;20052;-57
2023/12/02 08:13:37;;;;;;;47.35;23.67;;;;;;;-0.26;60.87;98954.25;5044754;28;20128;-61
2023/12/02 08:16:02;;;;;;;49.35;21.98;;;;;;;-0.14;60.90;98951.00;5035384;28;20087;-61
2023/12/02 08:18:28;;;;;;;52.33;23.77;;;;;;;0.06;60.72;98949.13;5035759;28;20025;-58
2023/12/02 08:20:54;;;;;;;46.15;22.35;;;;;;;0.50;59.73;98956.50;5035701;28;20048;-56
2023/12/02 08:23:19;;;;;;;47.53;23.75;;;;;;;0.86;57.80;98949.31;5035661;28;20440;-57
2023/12/02 08:25:45;;;;;;;50.15;24.05;;;;;;;1.04;57.02;98955.38;5036202;28;20297;-59
2023/12/02 08:28:11;;;;;;;46.97;23.27;;;;;;;1.09;56.98;98955.13;5054961;28;20048;-59
2023/12/02 08:30:37;;;;;;;44.22;22.65;;;;;;;1.08;56.86;98948.97;5055760;28;20116;-62
2023/12/02 08:33:03;;;;;;;47.13;23.38;;;;;;;0.84;56.64;98923.06;5054998;28;20439;-61
2023/12/02 08:35:29;;;;;;;43.05;22.77;;;;;;;1.00;56.92;98956.47;5055344;28;20033;-55
2023/12/02 08:37:54;;;;;;;48.97;24.23;;;;;;;1.00;57.29;98961.75;5055526;28;20029;-58
2023/12/02 08:40:20;;;;;;;47.40;23.13;;;;;;;0.99;57.21;98949.50;5055463;28;20025;-58
2023/12/02 08:42:46;;;;;;;50.15;22.15;;;;;;;1.06;56.92;98960.56;5038850;28;20364;-60
2023/12/02 08:45:11;;;;;;;46.92;21.90;;;;;;;1.06;56.83;98964.03;5035055;28;20156;-61
2023/12/02 08:47:37;;;;;;;49.65;23.08;;;;;;;0.89;56.08;98970.25;5034226;28;20037;-57
2023/12/02 08:50:03;;;;;;;48.30;21.83;;;;;;;0.71;56.88;98978.19;5039084;28;20068;-57
2023/12/02 08:52:29;;;;;;;44.60;21.80;;;;;;;0.62;57.41;98978.69;5054651;28;20043;-59
2023/12/02 08:54:55;;;;;;;40.10;21.58;;;;;;;0.56;57.58;98981.66;5054705;28;20028;-61
2023/12/02 08:57:21;;;;;;;41.75;22.13;;;;;;;0.47;57.34;98980.38;5040091;28;20049;-59
2023/12/02 08:59:46;;;;;;;42.90;22.25;;;;;;;0.32;57.82;98976.75;5035053;28;20065;-56
2023/12/02 09:02:12;;;;;;;43.22;20.85;;;;;;;0.16;57.70;98989.00;5033856;28;20029;-60
2023/12/02 09:04:38;;;;;;;46.15;21.55;;;;;;;-0.04;58.69;98982.97;5043444;28;20048;-60
2023/12/02 09:07:04;;;;;;;43.97;20.38;;;;;;;-0.07;58.87;98993.66;5054776;28;20028;-60
2023/12/02 09:09:29;;;;;;;44.90;21.23;;;;;;;-0.13;58.74;98999.22;5054817;28;20060;-55
2023/12/02 09:11:55;;;;;;;47.28;21.92;;;;;;;-0.22;58.91;99001.41;5040819;28;20080;-57
2023/12/02 09:14:21;;;;;;;41.53;21.08;;;;;;;-0.14;59.32;99001.00;5041838;28;20094;-61
2023/12/02 09:16:47;;;;;;;43.40;21.67;;;;;;;-0.02;58.79;98999.53;5049114;28;20030;-58
2023/12/02 09:19:51;;;;;;;41.35;19.90;;;;;;;0.07;58.84;98992.94;5034507;28;20030;-60
2023/12/02 09:22:46;;;;;;;39.35;18.92;;;;;;;0.11;59.16;98999.75;5034511;28;20037;-59
2023/12/02 09:25:25;;;;;;;25.90;13.68;;;;;;;-0.17;57.95;98962.53;5034312;28;20113;-57
2023/12/02 09:28:06;;;;;;;33.88;17.77;;;;;;;-0.13;57.82;99010.59;5034026;28;20408;-57
2023/12/02 09:30:36;;;;;;;35.67;17.25;;;;;;;-0.38;58.35;99006.53;5033958;28;20073;-55
2023/12/02 09:33:05;;;;;;;32.88;17.60;;;;;;;-0.70;58.60;98985.28;5034010;28;20034;-60
2023/12/02 09:35:32;;;;;;;36.03;17.48;;;;;;;-0.70;59.03;98998.44;5033601;28;20029;-60
2023/12/02 09:37:59;;;;;;;32.70;16.73;;;;;;;-0.71;59.30;99014.28;5034031;28;20040;-58
2023/12/02 09:40:45;;;;;;;32.60;16.67;;;;;;;-0.71;59.31;99011.66;5038525;28;20364;-59
2023/12/02 09:43:22;;;;;;;34.00;17.55;;;;;;;-0.58;59.73;99015.41;5053093;28;20136;-58
2023/12/02 09:45:54;;;;;;;36.28;17.70;;;;;;;-0.60;59.08;99014.63;5053643;28;20032;-56
2023/12/02 09:48:27;;;;;;;33.70;16.75;;;;;;;-0.59;59.20;99018.94;5053846;28;20096;-59
2023/12/02 09:51:26;;;;;;;32.03;16.95;;;;;;;-0.39;58.96;99022.41;5053654;28;20033;-57
2023/12/02 09:54:06;;;;;;;33.03;16.95;;;;;;;-0.26;58.30;99017.41;5052963;28;20363;-56
2023/12/02 09:56:39;;;;;;;33.97;16.98;;;;;;;-0.24;58.33;99024.31;5036888;28;20037;-61
2023/12/02 09:59:17;;;;;;;33.25;16.33;;;;;;;-0.27;58.10;99020.97;5035183;28;20053;-62
2023/12/02 10:01:55;;;;;;;28.80;15.68;;;;;;;-0.29;58.25;99018.38;5050125;28;20040;-61
2023/12/02 10:04:39;;;;;;;28.60;16.38;;;;;;;-0.33;58.16;99014.22;5053071;28;20119;-58
2023/12/02 10:07:14;;;;;;;25.33;14.00;;;;;;;-0.37;58.22;99010.03;5053804;28;20044;-63
2023/12/02 10:09:40;;;;;;;;;;;;;;;-0.13;59.07;99017.66;5050783;28;20017;-59
2023/12/02 10:12:24;;;;;;;29.73;15.48;;;;;;;-0.34;57.99;99025.66;5033254;28;19971;-62
2023/12/02 10:15:05;;;;;;;27.58;15.30;;;;;;;-0.47;58.36;99013.13;5033099;28;20489;-63
2023/12/02 10:17:55;;;;;;;38.85;15.95;;;;;;;-0.54;58.52;99019.56;5032535;28;20045;-60
2023/12/02 10:20:26;;;;;;;27.27;14.85;;;;;;;-0.69;58.22;99026.41;5033171;28;20060;-62
2023/12/02 10:22:58;;;;;;;27.58;15.40;;;;;;;-0.81;59.10;99025.22;5036363;28;20072;-60
2023/12/02 10:25:29;;;;;;;29.45;14.95;;;;;;;-0.96;59.37;99021.53;5053338;28;20040;-58
2023/12/02 10:28:05;;;;;;;29.90;15.68;;;;;;;-1.08;59.59;99032.63;5052453;28;20053;-60
2023/12/02 10:30:34;;;;;;;30.05;15.02;;;;;;;-1.11;59.86;99032.72;5053136;28;20067;-58
2023/12/02 10:33:34;;;;;;;29.05;15.80;;;;;;;-1.09;59.89;99033.50;5053499;28;20024;-56
2023/12/02 10:36:07;;;;;;;26.60;14.20;;;;;;;-1.05;59.70;99035.94;5052411;28;20051;-60
2023/12/02 10:39:09;;;;;;;34.97;16.33;;;;;;;-1.01;59.42;99039.28;5044294;28;20045;-62
2023/12/02 10:42:00;;;;;;;30.63;14.20;;;;;;;-1.05;59.89;99056.13;5033156;28;20041;-57
2023/12/02 10:44:31;;;;;;;30.17;16.38;;;;;;;-1.04;59.95;99052.56;5033317;28;20041;-54
2023/12/02 10:46:59;;;;;;;28.85;14.85;;;;;;;-1.02;59.72;99054.19;5037049;28;20444;-59
2023/12/02 10:49:30;;;;;;;30.98;14.93;;;;;;;-0.99;59.36;99063.72;5052581;28;20041;-58
2023/12/02 10:51:58;;;;;;;28.63;15.05;;;;;;;-1.02;59.22;99061.22;5051692;28;20025;-58
2023/12/02 10:54:28;;;;;;;29.10;15.38;;;;;;;-1.06;59.24;99060.50;5036624;28;20029;-56
2023/12/02 10:57:06;;;;;;;30.77;15.55;;;;;;;-1.12;59.60;99055.53;5042085;28;20044;-59
2023/12/02 10:59:34;;;;;;;25.58;14.40;;;;;;;-1.13;59.54;99060.84;5052982;28;20494;-59
2023/12/02 11:02:12;;;;;;;28.65;13.82;;;;;;;-1.09;59.70;99065.91;5053107;28;20025;-59
2023/12/02 11:04:46;;;;;;;33.75;15.27;;;;;;;-1.03;59.89;99065.63;5052784;28;20037;-59
2023/12/02 11:07:17;;;;;;;28.23;14.27;;;;;;;-1.01;59.33;99061.16;5050578;28;20046;-58
2023/12/02 11:10:03;;;;;;;24.58;13.70;;;;;;;-0.82;59.24;99062.09;5032517;28;20025;-60
2023/12/02 11:13:00;;;;;;;27.92;14.77;;;;;;;-0.73;59.34;99073.00;5032365;28;20310;-58
2023/12/02 11:15:28;;;;;;;29.15;15.38;;;;;;;-0.70;58.94;99084.34;5031818;28;20075;-58
2023/12/02 11:18:03;;;;;;;29.08;13.70;;;;;;;-0.57;58.84;99090.72;5032008;28;20085;-61
2023/12/02 11:20:51;;;;;;;21.33;12.93;;;;;;;-0.42;58.44;99085.69;5038879;28;20027;-60